Santa Coloma de Gramanet, Spain
Current Conditions -  °F | °C
As of 2:30 PM on Wednesday 22 Oct 2014 (Local Time) from LELL Reporting Station
Clear Clear  
Wind Chill: 24°   Ceiling: Unl
Heat Index: 24°   Visibility: 6mi
Dew Point:   Wind: 14mph
Humidity: 31%   Direction: 260°W
Pressure: 30.18"   Gusts: NA
Location:  41.45°N, 2.22°E
Report Text: LELL 221230Z 26012KT 230V290 CAVOK 24/06 Q1022
Loading
Personal Weather Stations






























Interactive Weather Map
Tropical Storm Tracking
New forecast layout! Learn more

10-Day Weather Forecast

Advertisements
Track Severe Weather on mobile